sensor_id;sensor_type;location;lat;lon;timestamp;temperature;humidity
2957;DHT22;1488;51.548;7.222;2023-03-01T00:01:58;22.30;53.40
2957;DHT22;1488;51.548;7.222;2023-03-01T00:04:25;22.30;53.50
2957;DHT22;1488;51.548;7.222;2023-03-01T00:06:53;22.30;53.40
2957;DHT22;1488;51.548;7.222;2023-03-01T00:09:20;22.30;53.40
2957;DHT22;1488;51.548;7.222;2023-03-01T00:11:47;22.30;53.40
2957;DHT22;1488;51.548;7.222;2023-03-01T00:14:14;22.20;53.40
2957;DHT22;1488;51.548;7.222;2023-03-01T00:16:43;22.20;53.20
2957;DHT22;1488;51.548;7.222;2023-03-01T00:19:15;22.20;53.30
2957;DHT22;1488;51.548;7.222;2023-03-01T00:21:42;22.20;53.20
2957;DHT22;1488;51.548;7.222;2023-03-01T00:24:10;22.20;53.20
2957;DHT22;1488;51.548;7.222;2023-03-01T00:26:37;22.40;53.30
2957;DHT22;1488;51.548;7.222;2023-03-01T00:29:04;22.10;53.20
2957;DHT22;1488;51.548;7.222;2023-03-01T00:31:35;22.10;53.20
2957;DHT22;1488;51.548;7.222;2023-03-01T00:34:23;22.10;53.20
2957;DHT22;1488;51.548;7.222;2023-03-01T00:36:52;22.10;53.30
2957;DHT22;1488;51.548;7.222;2023-03-01T00:39:19;22.10;53.10
2957;DHT22;1488;51.548;7.222;2023-03-01T00:41:46;22.10;53.10
2957;DHT22;1488;51.548;7.222;2023-03-01T00:44:13;22.10;53.00
2957;DHT22;1488;51.548;7.222;2023-03-01T00:46:40;22.10;52.90
2957;DHT22;1488;51.548;7.222;2023-03-01T00:49:07;22.10;53.00
2957;DHT22;1488;51.548;7.222;2023-03-01T00:51:35;22.00;52.90
2957;DHT22;1488;51.548;7.222;2023-03-01T00:56:33;22.00;53.00
2957;DHT22;1488;51.548;7.222;2023-03-01T00:59:00;22.00;53.50
2957;DHT22;1488;51.548;7.222;2023-03-01T01:01:29;22.00;53.00
2957;DHT22;1488;51.548;7.222;2023-03-01T01:03:59;22.00;52.90
2957;DHT22;1488;51.548;7.222;2023-03-01T01:06:31;22.00;52.90
2957;DHT22;1488;51.548;7.222;2023-03-01T01:09:04;22.00;52.90
2957;DHT22;1488;51.548;7.222;2023-03-01T01:11:32;22.00;53.10
2957;DHT22;1488;51.548;7.222;2023-03-01T01:14:00;22.10;53.10
2957;DHT22;1488;51.548;7.222;2023-03-01T01:16:28;21.90;52.90
2957;DHT22;1488;51.548;7.222;2023-03-01T01:18:56;21.90;52.90
2957;DHT22;1488;51.548;7.222;2023-03-01T01:21:24;21.90;52.90
2957;DHT22;1488;51.548;7.222;2023-03-01T01:23:52;21.90;52.90
2957;DHT22;1488;51.548;7.222;2023-03-01T01:26:22;21.90;52.90
2957;DHT22;1488;51.548;7.222;2023-03-01T01:28:50;21.90;52.90
2957;DHT22;1488;51.548;7.222;2023-03-01T01:31:18;21.90;52.90
2957;DHT22;1488;51.548;7.222;2023-03-01T01:33:45;21.90;52.90
2957;DHT22;1488;51.548;7.222;2023-03-01T01:36:12;21.80;52.70
2957;DHT22;1488;51.548;7.222;2023-03-01T01:38:39;21.90;52.80
2957;DHT22;1488;51.548;7.222;2023-03-01T01:41:08;21.90;52.80
2957;DHT22;1488;51.548;7.222;2023-03-01T01:43:40;21.80;52.70
2957;DHT22;1488;51.548;7.222;2023-03-01T01:46:16;21.80;52.70
2957;DHT22;1488;51.548;7.222;2023-03-01T01:48:49;21.80;52.80
2957;DHT22;1488;51.548;7.222;2023-03-01T01:51:19;21.80;52.70
2957;DHT22;1488;51.548;7.222;2023-03-01T01:53:52;21.90;52.80
2957;DHT22;1488;51.548;7.222;2023-03-01T01:56:20;21.80;52.70
2957;DHT22;1488;51.548;7.222;2023-03-01T01:58:50;21.90;52.80
2957;DHT22;1488;51.548;7.222;2023-03-01T02:01:19;21.70;52.60
2957;DHT22;1488;51.548;7.222;2023-03-01T02:03:46;21.70;52.60
2957;DHT22;1488;51.548;7.222;2023-03-01T02:06:21;21.70;52.70
2957;DHT22;1488;51.548;7.222;2023-03-01T02:08:49;21.70;52.70
2957;DHT22;1488;51.548;7.222;2023-03-01T02:11:19;21.90;52.90
2957;DHT22;1488;51.548;7.222;2023-03-01T02:13:51;21.70;52.60
2957;DHT22;1488;51.548;7.222;2023-03-01T02:16:19;21.80;53.40
2957;DHT22;1488;51.548;7.222;2023-03-01T02:18:47;21.60;52.60
2957;DHT22;1488;51.548;7.222;2023-03-01T02:21:30;21.60;52.60
2957;DHT22;1488;51.548;7.222;2023-03-01T02:24:03;21.70;52.70
2957;DHT22;1488;51.548;7.222;2023-03-01T02:26:40;21.60;52.60
2957;DHT22;1488;51.548;7.222;2023-03-01T02:29:09;21.60;52.60
2957;DHT22;1488;51.548;7.222;2023-03-01T02:31:37;21.60;52.70
2957;DHT22;1488;51.548;7.222;2023-03-01T02:34:13;21.60;52.60
2957;DHT22;1488;51.548;7.222;2023-03-01T02:36:45;21.60;52.70
2957;DHT22;1488;51.548;7.222;2023-03-01T02:39:18;21.60;52.60
2957;DHT22;1488;51.548;7.222;2023-03-01T02:41:50;21.60;52.60
2957;DHT22;1488;51.548;7.222;2023-03-01T02:44:21;21.70;52.70
2957;DHT22;1488;51.548;7.222;2023-03-01T02:46:54;21.60;52.60
2957;DHT22;1488;51.548;7.222;2023-03-01T02:49:25;21.50;52.50
2957;DHT22;1488;51.548;7.222;2023-03-01T02:52:07;21.50;52.60
2957;DHT22;1488;51.548;7.222;2023-03-01T02:54:42;21.50;52.60
2957;DHT22;1488;51.548;7.222;2023-03-01T02:57:12;21.50;52.80
2957;DHT22;1488;51.548;7.222;2023-03-01T02:59:41;21.50;52.60
2957;DHT22;1488;51.548;7.222;2023-03-01T03:02:19;21.50;52.60
2957;DHT22;1488;51.548;7.222;2023-03-01T03:05:02;21.50;52.50
2957;DHT22;1488;51.548;7.222;2023-03-01T03:07:29;21.50;52.50
2957;DHT22;1488;51.548;7.222;2023-03-01T03:09:56;21.40;52.50
2957;DHT22;1488;51.548;7.222;2023-03-01T03:12:22;21.40;52.50
2957;DHT22;1488;51.548;7.222;2023-03-01T03:14:51;21.40;52.60
2957;DHT22;1488;51.548;7.222;2023-03-01T03:17:18;21.40;52.50
2957;DHT22;1488;51.548;7.222;2023-03-01T03:19:44;21.40;52.50
2957;DHT22;1488;51.548;7.222;2023-03-01T03:22:11;21.40;52.60
2957;DHT22;1488;51.548;7.222;2023-03-01T03:24:39;21.40;52.50
2957;DHT22;1488;51.548;7.222;2023-03-01T03:27:06;21.40;52.60
2957;DHT22;1488;51.548;7.222;2023-03-01T03:29:33;21.60;52.70
2957;DHT22;1488;51.548;7.222;2023-03-01T03:32:01;21.30;52.50
2957;DHT22;1488;51.548;7.222;2023-03-01T03:34:28;21.40;52.50
2957;DHT22;1488;51.548;7.222;2023-03-01T03:36:55;21.40;52.50
2957;DHT22;1488;51.548;7.222;2023-03-01T03:39:25;21.30;52.40
2957;DHT22;1488;51.548;7.222;2023-03-01T03:41:52;21.30;52.40
2957;DHT22;1488;51.548;7.222;2023-03-01T03:44:19;21.30;52.40
2957;DHT22;1488;51.548;7.222;2023-03-01T03:46:46;21.50;52.60
2957;DHT22;1488;51.548;7.222;2023-03-01T03:49:14;21.30;52.50
2957;DHT22;1488;51.548;7.222;2023-03-01T03:51:40;21.30;52.40
2957;DHT22;1488;51.548;7.222;2023-03-01T03:54:07;21.30;52.40
2957;DHT22;1488;51.548;7.222;2023-03-01T03:56:34;21.30;53.00
2957;DHT22;1488;51.548;7.222;2023-03-01T03:59:01;21.30;52.40
2957;DHT22;1488;51.548;7.222;2023-03-01T04:01:28;21.30;52.50
2957;DHT22;1488;51.548;7.222;2023-03-01T04:03:54;21.20;52.40
2957;DHT22;1488;51.548;7.222;2023-03-01T04:06:23;21.20;52.30
2957;DHT22;1488;51.548;7.222;2023-03-01T04:08:50;21.40;52.50
2957;DHT22;1488;51.548;7.222;2023-03-01T04:11:25;21.20;52.50
2957;DHT22;1488;51.548;7.222;2023-03-01T04:13:57;21.20;52.30
2957;DHT22;1488;51.548;7.222;2023-03-01T04:16:25;21.20;52.40
2957;DHT22;1488;51.548;7.222;2023-03-01T04:18:52;21.20;52.40
2957;DHT22;1488;51.548;7.222;2023-03-01T04:21:20;21.20;52.30
2957;DHT22;1488;51.548;7.222;2023-03-01T04:23:48;21.20;52.40
2957;DHT22;1488;51.548;7.222;2023-03-01T04:26:19;21.20;52.40
2957;DHT22;1488;51.548;7.222;2023-03-01T04:28:47;21.20;52.40
2957;DHT22;1488;51.548;7.222;2023-03-01T04:31:18;21.20;52.40
2957;DHT22;1488;51.548;7.222;2023-03-01T04:33:48;21.20;52.30
2957;DHT22;1488;51.548;7.222;2023-03-01T04:36:17;21.20;52.30
2957;DHT22;1488;51.548;7.222;2023-03-01T04:38:45;21.10;52.30
2957;DHT22;1488;51.548;7.222;2023-03-01T04:41:16;21.10;52.30
2957;DHT22;1488;51.548;7.222;2023-03-01T04:43:43;21.10;52.30
2957;DHT22;1488;51.548;7.222;2023-03-01T04:46:12;21.10;52.30
2957;DHT22;1488;51.548;7.222;2023-03-01T04:48:41;21.10;52.30
2957;DHT22;1488;51.548;7.222;2023-03-01T04:51:11;21.10;52.30
2957;DHT22;1488;51.548;7.222;2023-03-01T04:53:40;21.10;52.30
2957;DHT22;1488;51.548;7.222;2023-03-01T04:56:07;21.10;52.30
2957;DHT22;1488;51.548;7.222;2023-03-01T04:58:35;21.10;52.30
2957;DHT22;1488;51.548;7.222;2023-03-01T05:01:09;21.10;52.30
2957;DHT22;1488;51.548;7.222;2023-03-01T05:03:41;21.10;52.30
2957;DHT22;1488;51.548;7.222;2023-03-01T05:06:07;21.10;52.30
2957;DHT22;1488;51.548;7.222;2023-03-01T05:08:34;21.00;52.10
2957;DHT22;1488;51.548;7.222;2023-03-01T05:11:03;21.00;52.20
2957;DHT22;1488;51.548;7.222;2023-03-01T05:13:30;21.00;52.20
2957;DHT22;1488;51.548;7.222;2023-03-01T05:16:00;21.00;52.20
2957;DHT22;1488;51.548;7.222;2023-03-01T05:18:28;21.00;52.20
2957;DHT22;1488;51.548;7.222;2023-03-01T05:21:02;21.00;52.20
2957;DHT22;1488;51.548;7.222;2023-03-01T05:23:30;21.00;52.20
2957;DHT22;1488;51.548;7.222;2023-03-01T05:25:57;21.00;52.20
2957;DHT22;1488;51.548;7.222;2023-03-01T05:28:25;21.00;52.20
2957;DHT22;1488;51.548;7.222;2023-03-01T05:30:53;21.00;52.80
2957;DHT22;1488;51.548;7.222;2023-03-01T05:33:21;21.00;52.20
2957;DHT22;1488;51.548;7.222;2023-03-01T05:35:50;20.90;52.10
2957;DHT22;1488;51.548;7.222;2023-03-01T05:38:17;21.00;52.20
2957;DHT22;1488;51.548;7.222;2023-03-01T05:40:46;20.90;52.10
2957;DHT22;1488;51.548;7.222;2023-03-01T05:45:46;20.90;52.10
2957;DHT22;1488;51.548;7.222;2023-03-01T05:48:13;20.90;52.10
2957;DHT22;1488;51.548;7.222;2023-03-01T05:50:43;20.90;52.10
2957;DHT22;1488;51.548;7.222;2023-03-01T05:53:12;20.90;52.10
2957;DHT22;1488;51.548;7.222;2023-03-01T05:55:40;20.90;52.10
2957;DHT22;1488;51.548;7.222;2023-03-01T05:58:10;20.90;52.10
2957;DHT22;1488;51.548;7.222;2023-03-01T06:00:39;20.90;52.10
2957;DHT22;1488;51.548;7.222;2023-03-01T06:03:06;20.90;52.10
2957;DHT22;1488;51.548;7.222;2023-03-01T06:05:33;20.90;52.10
2957;DHT22;1488;51.548;7.222;2023-03-01T06:08:01;20.90;52.10
2957;DHT22;1488;51.548;7.222;2023-03-01T06:10:29;20.90;52.20
2957;DHT22;1488;51.548;7.222;2023-03-01T06:12:56;20.80;52.00
2957;DHT22;1488;51.548;7.222;2023-03-01T06:15:24;20.80;52.00
2957;DHT22;1488;51.548;7.222;2023-03-01T06:17:52;20.80;52.10
2957;DHT22;1488;51.548;7.222;2023-03-01T06:20:21;20.80;52.00
2957;DHT22;1488;51.548;7.222;2023-03-01T06:22:50;20.80;52.00
2957;DHT22;1488;51.548;7.222;2023-03-01T06:25:21;20.90;52.00
2957;DHT22;1488;51.548;7.222;2023-03-01T06:27:48;20.90;52.10
2957;DHT22;1488;51.548;7.222;2023-03-01T06:30:16;20.80;52.00
2957;DHT22;1488;51.548;7.222;2023-03-01T06:32:45;20.80;52.00
2957;DHT22;1488;51.548;7.222;2023-03-01T06:35:14;20.80;52.00
2957;DHT22;1488;51.548;7.222;2023-03-01T06:37:43;20.80;52.10
2957;DHT22;1488;51.548;7.222;2023-03-01T06:40:11;20.80;52.00
2957;DHT22;1488;51.548;7.222;2023-03-01T06:42:50;20.80;52.00
2957;DHT22;1488;51.548;7.222;2023-03-01T06:45:19;20.80;52.10
2957;DHT22;1488;51.548;7.222;2023-03-01T06:47:49;20.80;52.10
2957;DHT22;1488;51.548;7.222;2023-03-01T06:50:18;20.80;52.10
2957;DHT22;1488;51.548;7.222;2023-03-01T06:52:47;20.80;52.10
2957;DHT22;1488;51.548;7.222;2023-03-01T06:55:13;20.80;52.10
2957;DHT22;1488;51.548;7.222;2023-03-01T06:57:40;20.80;52.10
2957;DHT22;1488;51.548;7.222;2023-03-01T07:00:11;20.80;52.10
2957;DHT22;1488;51.548;7.222;2023-03-01T07:02:38;20.80;52.10
2957;DHT22;1488;51.548;7.222;2023-03-01T07:05:06;20.80;52.10
2957;DHT22;1488;51.548;7.222;2023-03-01T07:07:32;20.80;52.20
2957;DHT22;1488;51.548;7.222;2023-03-01T07:12:26;20.80;52.20
2957;DHT22;1488;51.548;7.222;2023-03-01T07:14:53;20.80;52.40
2957;DHT22;1488;51.548;7.222;2023-03-01T07:17:21;20.80;52.30
2957;DHT22;1488;51.548;7.222;2023-03-01T07:19:48;20.80;52.20
2957;DHT22;1488;51.548;7.222;2023-03-01T07:22:15;20.80;52.30
2957;DHT22;1488;51.548;7.222;2023-03-01T07:24:41;21.00;52.50
2957;DHT22;1488;51.548;7.222;2023-03-01T07:27:09;20.80;52.30
2957;DHT22;1488;51.548;7.222;2023-03-01T07:29:36;20.80;52.40
2957;DHT22;1488;51.548;7.222;2023-03-01T07:32:03;20.90;52.40
2957;DHT22;1488;51.548;7.222;2023-03-01T07:34:32;20.80;52.40
2957;DHT22;1488;51.548;7.222;2023-03-01T07:36:59;21.00;52.50
2957;DHT22;1488;51.548;7.222;2023-03-01T07:39:26;21.00;52.50
2957;DHT22;1488;51.548;7.222;2023-03-01T07:41:52;20.80;52.40
2957;DHT22;1488;51.548;7.222;2023-03-01T07:44:22;21.00;52.50
2957;DHT22;1488;51.548;7.222;2023-03-01T07:46:53;20.70;52.70
2957;DHT22;1488;51.548;7.222;2023-03-01T07:49:24;20.90;53.30
2957;DHT22;1488;51.548;7.222;2023-03-01T07:51:53;20.70;53.00
2957;DHT22;1488;51.548;7.222;2023-03-01T07:54:20;20.80;52.50
2957;DHT22;1488;51.548;7.222;2023-03-01T07:56:47;20.80;52.40
2957;DHT22;1488;51.548;7.222;2023-03-01T07:59:14;20.70;52.30
2957;DHT22;1488;51.548;7.222;2023-03-01T08:01:40;20.80;52.40
2957;DHT22;1488;51.548;7.222;2023-03-01T08:04:08;20.80;52.60
2957;DHT22;1488;51.548;7.222;2023-03-01T08:06:36;20.80;52.40
2957;DHT22;1488;51.548;7.222;2023-03-01T08:09:04;20.90;52.30
2957;DHT22;1488;51.548;7.222;2023-03-01T08:11:31;20.90;52.50
2957;DHT22;1488;51.548;7.222;2023-03-01T08:13:57;20.90;52.80
2957;DHT22;1488;51.548;7.222;2023-03-01T08:16:24;21.00;52.80
2957;DHT22;1488;51.548;7.222;2023-03-01T08:18:51;21.00;52.90
2957;DHT22;1488;51.548;7.222;2023-03-01T08:21:19;20.80;52.80
2957;DHT22;1488;51.548;7.222;2023-03-01T08:23:46;21.00;52.70
2957;DHT22;1488;51.548;7.222;2023-03-01T08:26:20;21.00;51.70
2957;DHT22;1488;51.548;7.222;2023-03-01T08:28:47;21.10;51.80
2957;DHT22;1488;51.548;7.222;2023-03-01T08:31:16;21.10;52.30
2957;DHT22;1488;51.548;7.222;2023-03-01T08:33:43;21.20;52.70
2957;DHT22;1488;51.548;7.222;2023-03-01T08:36:16;21.20;52.80
2957;DHT22;1488;51.548;7.222;2023-03-01T08:38:43;21.30;52.70
2957;DHT22;1488;51.548;7.222;2023-03-01T08:41:10;21.30;52.70
2957;DHT22;1488;51.548;7.222;2023-03-01T08:43:38;21.40;52.70
2957;DHT22;1488;51.548;7.222;2023-03-01T08:46:05;21.50;52.50
2957;DHT22;1488;51.548;7.222;2023-03-01T08:48:31;21.70;52.30
2957;DHT22;1488;51.548;7.222;2023-03-01T08:51:07;21.90;52.10
2957;DHT22;1488;51.548;7.222;2023-03-01T08:53:34;22.10;51.90
2957;DHT22;1488;51.548;7.222;2023-03-01T08:56:01;22.40;51.90
2957;DHT22;1488;51.548;7.222;2023-03-01T08:58:28;22.50;52.20
2957;DHT22;1488;51.548;7.222;2023-03-01T09:00:57;22.80;50.90
2957;DHT22;1488;51.548;7.222;2023-03-01T09:03:24;22.70;50.00
2957;DHT22;1488;51.548;7.222;2023-03-01T09:05:52;22.90;50.20
2957;DHT22;1488;51.548;7.222;2023-03-01T09:08:21;23.20;49.90
2957;DHT22;1488;51.548;7.222;2023-03-01T09:10:48;23.40;50.10
2957;DHT22;1488;51.548;7.222;2023-03-01T09:13:15;23.70;50.00
2957;DHT22;1488;51.548;7.222;2023-03-01T09:15:41;23.90;49.90
2957;DHT22;1488;51.548;7.222;2023-03-01T09:18:09;24.10;48.80
2957;DHT22;1488;51.548;7.222;2023-03-01T09:20:36;24.20;49.40
2957;DHT22;1488;51.548;7.222;2023-03-01T09:23:03;24.40;49.40
2957;DHT22;1488;51.548;7.222;2023-03-01T09:25:31;24.60;49.50
2957;DHT22;1488;51.548;7.222;2023-03-01T09:28:00;24.80;49.40
2957;DHT22;1488;51.548;7.222;2023-03-01T09:30:27;24.90;49.40
2957;DHT22;1488;51.548;7.222;2023-03-01T09:32:56;24.90;49.40
2957;DHT22;1488;51.548;7.222;2023-03-01T09:35:24;24.90;49.40
2957;DHT22;1488;51.548;7.222;2023-03-01T09:37:51;24.80;49.60
2957;DHT22;1488;51.548;7.222;2023-03-01T09:40:19;24.60;50.00
2957;DHT22;1488;51.548;7.222;2023-03-01T09:42:51;24.40;50.10
2957;DHT22;1488;51.548;7.222;2023-03-01T09:45:26;24.40;50.70
2957;DHT22;1488;51.548;7.222;2023-03-01T09:47:56;24.30;50.70
2957;DHT22;1488;51.548;7.222;2023-03-01T09:50:26;24.50;50.00
2957;DHT22;1488;51.548;7.222;2023-03-01T09:53:00;24.40;50.30
2957;DHT22;1488;51.548;7.222;2023-03-01T09:55:31;24.60;50.20
2957;DHT22;1488;51.548;7.222;2023-03-01T09:58:04;24.80;50.00
2957;DHT22;1488;51.548;7.222;2023-03-01T10:00:36;25.00;48.50
2957;DHT22;1488;51.548;7.222;2023-03-01T10:03:13;25.10;48.90
2957;DHT22;1488;51.548;7.222;2023-03-01T10:05:54;25.20;49.10
2957;DHT22;1488;51.548;7.222;2023-03-01T10:08:36;25.30;49.30
2957;DHT22;1488;51.548;7.222;2023-03-01T10:11:18;25.20;48.30
2957;DHT22;1488;51.548;7.222;2023-03-01T10:13:50;25.30;48.60
2957;DHT22;1488;51.548;7.222;2023-03-01T10:16:24;25.00;49.10
2957;DHT22;1488;51.548;7.222;2023-03-01T17:53:19;22.20;50.00
2957;DHT22;1488;51.548;7.222;2023-03-01T17:55:48;22.10;50.30
2957;DHT22;1488;51.548;7.222;2023-03-01T18:42:09;22.20;51.50
2957;DHT22;1488;51.548;7.222;2023-03-01T18:44:42;22.20;51.50
2957;DHT22;1488;51.548;7.222;2023-03-01T18:47:11;22.20;51.60
2957;DHT22;1488;51.548;7.222;2023-03-01T18:49:40;22.30;51.60
2957;DHT22;1488;51.548;7.222;2023-03-01T18:52:09;22.30;51.70
2957;DHT22;1488;51.548;7.222;2023-03-01T18:54:45;22.30;51.70
2957;DHT22;1488;51.548;7.222;2023-03-01T18:57:13;22.30;51.70
2957;DHT22;1488;51.548;7.222;2023-03-01T18:59:40;22.30;51.70
2957;DHT22;1488;51.548;7.222;2023-03-01T19:02:09;22.20;51.30
2957;DHT22;1488;51.548;7.222;2023-03-01T19:04:36;22.40;51.80
2957;DHT22;1488;51.548;7.222;2023-03-01T19:07:04;22.20;51.40
2957;DHT22;1488;51.548;7.222;2023-03-01T19:09:32;22.30;51.60
2957;DHT22;1488;51.548;7.222;2023-03-01T19:11:59;22.20;51.50
2957;DHT22;1488;51.548;7.222;2023-03-01T19:14:29;22.30;51.80
2957;DHT22;1488;51.548;7.222;2023-03-01T19:16:56;22.20;51.70
2957;DHT22;1488;51.548;7.222;2023-03-01T19:19:23;22.30;52.00
2957;DHT22;1488;51.548;7.222;2023-03-01T19:21:50;22.20;51.80
2957;DHT22;1488;51.548;7.222;2023-03-01T19:24:17;22.20;51.70
2957;DHT22;1488;51.548;7.222;2023-03-01T19:26:43;22.20;51.60
2957;DHT22;1488;51.548;7.222;2023-03-01T19:29:10;22.20;51.70
2957;DHT22;1488;51.548;7.222;2023-03-01T19:31:39;22.20;51.70
2957;DHT22;1488;51.548;7.222;2023-03-01T19:34:05;22.20;51.80
2957;DHT22;1488;51.548;7.222;2023-03-01T19:36:32;22.20;51.80
2957;DHT22;1488;51.548;7.222;2023-03-01T19:39:00;22.20;51.90
2957;DHT22;1488;51.548;7.222;2023-03-01T19:41:28;22.20;51.90
2957;DHT22;1488;51.548;7.222;2023-03-01T19:43:55;22.20;51.90
2957;DHT22;1488;51.548;7.222;2023-03-01T19:46:23;22.30;51.60
2957;DHT22;1488;51.548;7.222;2023-03-01T19:48:52;22.20;51.10
2957;DHT22;1488;51.548;7.222;2023-03-01T19:51:19;22.20;51.70
2957;DHT22;1488;51.548;7.222;2023-03-01T19:53:46;22.20;51.80
2957;DHT22;1488;51.548;7.222;2023-03-01T19:56:13;22.20;51.90
2957;DHT22;1488;51.548;7.222;2023-03-01T19:58:40;22.20;52.00
2957;DHT22;1488;51.548;7.222;2023-03-01T20:01:13;22.20;51.90
2957;DHT22;1488;51.548;7.222;2023-03-01T20:03:41;22.20;51.90
2957;DHT22;1488;51.548;7.222;2023-03-01T20:06:11;22.20;52.00
2957;DHT22;1488;51.548;7.222;2023-03-01T20:08:38;22.20;51.90
2957;DHT22;1488;51.548;7.222;2023-03-01T20:11:06;22.20;51.30
2957;DHT22;1488;51.548;7.222;2023-03-01T20:13:36;22.10;51.50
2957;DHT22;1488;51.548;7.222;2023-03-01T20:16:04;22.20;51.70
2957;DHT22;1488;51.548;7.222;2023-03-01T20:18:31;22.10;51.40
2957;DHT22;1488;51.548;7.222;2023-03-01T20:20:58;22.20;51.70
2957;DHT22;1488;51.548;7.222;2023-03-01T20:23:27;22.20;51.80
2957;DHT22;1488;51.548;7.222;2023-03-01T20:26:01;22.20;51.90
2957;DHT22;1488;51.548;7.222;2023-03-01T20:28:29;22.20;52.00
2957;DHT22;1488;51.548;7.222;2023-03-01T20:31:02;22.20;51.90
2957;DHT22;1488;51.548;7.222;2023-03-01T20:33:29;22.10;51.90
2957;DHT22;1488;51.548;7.222;2023-03-01T20:35:56;22.20;52.00
2957;DHT22;1488;51.548;7.222;2023-03-01T20:38:23;22.20;52.10
2957;DHT22;1488;51.548;7.222;2023-03-01T20:40:56;22.10;52.10
2957;DHT22;1488;51.548;7.222;2023-03-01T20:43:23;22.10;52.00
2957;DHT22;1488;51.548;7.222;2023-03-01T20:45:49;22.10;52.10
2957;DHT22;1488;51.548;7.222;2023-03-01T20:48:16;22.10;52.10
2957;DHT22;1488;51.548;7.222;2023-03-01T20:50:43;22.10;52.80
2957;DHT22;1488;51.548;7.222;2023-03-01T20:53:10;22.10;52.20
2957;DHT22;1488;51.548;7.222;2023-03-01T20:55:37;22.10;52.20
2957;DHT22;1488;51.548;7.222;2023-03-01T20:58:05;22.20;52.30
2957;DHT22;1488;51.548;7.222;2023-03-01T21:00:32;22.10;52.20
2957;DHT22;1488;51.548;7.222;2023-03-01T21:02:59;22.10;52.20
2957;DHT22;1488;51.548;7.222;2023-03-01T21:05:25;22.10;52.20
2957;DHT22;1488;51.548;7.222;2023-03-01T21:07:53;22.10;52.20
2957;DHT22;1488;51.548;7.222;2023-03-01T21:10:19;22.20;52.20
2957;DHT22;1488;51.548;7.222;2023-03-01T21:13:01;22.10;52.20
2957;DHT22;1488;51.548;7.222;2023-03-01T21:15:33;22.10;52.20
2957;DHT22;1488;51.548;7.222;2023-03-01T21:18:08;22.10;52.20
2957;DHT22;1488;51.548;7.222;2023-03-01T21:20:36;22.10;52.30
2957;DHT22;1488;51.548;7.222;2023-03-01T21:23:07;22.10;52.40
2957;DHT22;1488;51.548;7.222;2023-03-01T21:25:34;22.10;52.40
2957;DHT22;1488;51.548;7.222;2023-03-01T21:28:13;22.10;52.40
2957;DHT22;1488;51.548;7.222;2023-03-01T21:30:55;22.10;52.50
2957;DHT22;1488;51.548;7.222;2023-03-01T21:33:22;22.10;52.50
2957;DHT22;1488;51.548;7.222;2023-03-01T21:35:51;22.10;52.50
2957;DHT22;1488;51.548;7.222;2023-03-01T21:38:22;22.10;52.60
2957;DHT22;1488;51.548;7.222;2023-03-01T21:40:49;22.10;52.60
2957;DHT22;1488;51.548;7.222;2023-03-01T21:43:19;21.90;52.40
2957;DHT22;1488;51.548;7.222;2023-03-01T21:45:57;22.00;52.60
2957;DHT22;1488;51.548;7.222;2023-03-01T21:48:30;21.90;52.50
2957;DHT22;1488;51.548;7.222;2023-03-01T21:50:59;22.10;52.40
2957;DHT22;1488;51.548;7.222;2023-03-01T21:53:38;22.10;52.40
2957;DHT22;1488;51.548;7.222;2023-03-01T21:56:15;22.00;52.50
2957;DHT22;1488;51.548;7.222;2023-03-01T21:58:45;22.00;52.30
2957;DHT22;1488;51.548;7.222;2023-03-01T22:01:17;22.20;52.40
2957;DHT22;1488;51.548;7.222;2023-03-01T22:04:06;22.10;52.20
2957;DHT22;1488;51.548;7.222;2023-03-01T22:06:43;22.10;52.20
2957;DHT22;1488;51.548;7.222;2023-03-01T22:09:12;22.10;52.20
2957;DHT22;1488;51.548;7.222;2023-03-01T22:11:42;22.00;52.00
2957;DHT22;1488;51.548;7.222;2023-03-01T22:14:21;22.00;52.10
2957;DHT22;1488;51.548;7.222;2023-03-01T22:16:55;22.00;52.00
2957;DHT22;1488;51.548;7.222;2023-03-01T22:19:29;22.00;52.00
2957;DHT22;1488;51.548;7.222;2023-03-01T22:22:01;21.80;51.80
2957;DHT22;1488;51.548;7.222;2023-03-01T22:24:36;21.80;51.80
2957;DHT22;1488;51.548;7.222;2023-03-01T22:27:08;21.90;51.80
2957;DHT22;1488;51.548;7.222;2023-03-01T22:29:35;21.90;51.80
2957;DHT22;1488;51.548;7.222;2023-03-01T22:32:09;21.90;51.80
2957;DHT22;1488;51.548;7.222;2023-03-01T22:34:36;21.90;51.90
2957;DHT22;1488;51.548;7.222;2023-03-01T22:37:08;21.90;51.80
2957;DHT22;1488;51.548;7.222;2023-03-01T22:39:40;21.90;51.80
2957;DHT22;1488;51.548;7.222;2023-03-01T22:42:14;21.90;51.90
2957;DHT22;1488;51.548;7.222;2023-03-01T22:44:44;21.80;51.70
2957;DHT22;1488;51.548;7.222;2023-03-01T22:47:17;21.90;51.80
2957;DHT22;1488;51.548;7.222;2023-03-01T22:49:53;21.90;51.80
2957;DHT22;1488;51.548;7.222;2023-03-01T22:52:25;21.80;51.70
2957;DHT22;1488;51.548;7.222;2023-03-01T22:54:53;21.80;51.70
2957;DHT22;1488;51.548;7.222;2023-03-01T22:57:22;21.80;51.70
2957;DHT22;1488;51.548;7.222;2023-03-01T22:59:49;21.80;51.70
2957;DHT22;1488;51.548;7.222;2023-03-01T23:02:21;21.60;51.50
2957;DHT22;1488;51.548;7.222;2023-03-01T23:04:50;21.80;51.70
2957;DHT22;1488;51.548;7.222;2023-03-01T23:07:20;21.80;51.70
2957;DHT22;1488;51.548;7.222;2023-03-01T23:09:55;21.70;51.60
2957;DHT22;1488;51.548;7.222;2023-03-01T23:12:26;21.80;51.70
2957;DHT22;1488;51.548;7.222;2023-03-01T23:14:54;21.70;51.60
2957;DHT22;1488;51.548;7.222;2023-03-01T23:17:25;21.70;51.70
2957;DHT22;1488;51.548;7.222;2023-03-01T23:19:52;21.70;51.60
2957;DHT22;1488;51.548;7.222;2023-03-01T23:22:20;21.70;51.60
2957;DHT22;1488;51.548;7.222;2023-03-01T23:24:51;21.70;51.60
2957;DHT22;1488;51.548;7.222;2023-03-01T23:27:24;21.70;51.70
2957;DHT22;1488;51.548;7.222;2023-03-01T23:29:54;21.70;51.70
2957;DHT22;1488;51.548;7.222;2023-03-01T23:32:25;21.70;51.70
2957;DHT22;1488;51.548;7.222;2023-03-01T23:34:52;21.70;51.70
2957;DHT22;1488;51.548;7.222;2023-03-01T23:37:20;21.70;51.60
2957;DHT22;1488;51.548;7.222;2023-03-01T23:39:47;21.70;51.60
2957;DHT22;1488;51.548;7.222;2023-03-01T23:42:24;21.70;51.70
2957;DHT22;1488;51.548;7.222;2023-03-01T23:48:22;21.60;51.60
2957;DHT22;1488;51.548;7.222;2023-03-01T23:53:37;21.60;51.60
2957;DHT22;1488;51.548;7.222;2023-03-01T23:56:24;21.60;51.60
